sensor_id;sensor_type;location;lat;lon;timestamp;pressure;altitude;pressure_sealevel;temperature;humidity
41513;BME280;27244;59.940;30.280;2023-03-25T00:01:13;98584.34;;;23.53;29.75
41513;BME280;27244;59.940;30.280;2023-03-25T00:03:41;98575.91;;;23.53;29.79
41513;BME280;27244;59.940;30.280;2023-03-25T00:06:12;98565.41;;;23.54;29.91
41513;BME280;27244;59.940;30.280;2023-03-25T00:08:39;98560.28;;;23.52;29.79
41513;BME280;27244;59.940;30.280;2023-03-25T00:11:06;98556.13;;;23.48;29.82
41513;BME280;27244;59.940;30.280;2023-03-25T00:13:34;98563.31;;;23.49;29.71
41513;BME280;27244;59.940;30.280;2023-03-25T00:16:03;98561.53;;;23.51;29.83
41513;BME280;27244;59.940;30.280;2023-03-25T00:18:31;98564.88;;;23.50;29.81
41513;BME280;27244;59.940;30.280;2023-03-25T00:21:00;98557.69;;;23.49;29.90
41513;BME280;27244;59.940;30.280;2023-03-25T00:23:29;98558.47;;;23.49;29.85
41513;BME280;27244;59.940;30.280;2023-03-25T00:25:56;98564.09;;;23.49;29.87
41513;BME280;27244;59.940;30.280;2023-03-25T00:28:26;98550.78;;;23.50;29.88
41513;BME280;27244;59.940;30.280;2023-03-25T00:30:58;98567.94;;;23.52;29.81
41513;BME280;27244;59.940;30.280;2023-03-25T00:33:27;98571.28;;;23.50;29.95
41513;BME280;27244;59.940;30.280;2023-03-25T00:35:56;98568.16;;;23.48;29.83
41513;BME280;27244;59.940;30.280;2023-03-25T00:38:25;98575.34;;;23.49;29.98
41513;BME280;27244;59.940;30.280;2023-03-25T00:40:59;98558.94;;;23.48;29.95
41513;BME280;27244;59.940;30.280;2023-03-25T00:43:33;98550.50;;;23.48;29.88
41513;BME280;27244;59.940;30.280;2023-03-25T00:46:00;98555.66;;;23.49;29.82
41513;BME280;27244;59.940;30.280;2023-03-25T00:48:29;98545.66;;;23.48;30.06
41513;BME280;27244;59.940;30.280;2023-03-25T00:50:56;98539.25;;;23.48;30.00
41513;BME280;27244;59.940;30.280;2023-03-25T00:53:24;98535.16;;;23.49;30.02
41513;BME280;27244;59.940;30.280;2023-03-25T00:55:56;98507.59;;;23.53;30.11
41513;BME280;27244;59.940;30.280;2023-03-25T00:58:23;98516.72;;;23.48;30.07
41513;BME280;27244;59.940;30.280;2023-03-25T01:00:50;98506.25;;;23.48;30.03
41513;BME280;27244;59.940;30.280;2023-03-25T01:03:17;98511.09;;;23.48;30.25
41513;BME280;27244;59.940;30.280;2023-03-25T01:05:46;98506.25;;;23.48;30.21
41513;BME280;27244;59.940;30.280;2023-03-25T01:08:12;98504.22;;;23.49;30.22
41513;BME280;27244;59.940;30.280;2023-03-25T01:10:42;98500.63;;;23.48;30.09
41513;BME280;27244;59.940;30.280;2023-03-25T01:13:09;98498.31;;;23.47;30.31
41513;BME280;27244;59.940;30.280;2023-03-25T01:15:38;98514.22;;;23.50;30.19
41513;BME280;27244;59.940;30.280;2023-03-25T01:18:06;98507.53;;;23.47;30.29
41513;BME280;27244;59.940;30.280;2023-03-25T01:20:33;98497.03;;;23.48;30.36
41513;BME280;27244;59.940;30.280;2023-03-25T01:23:02;98514.22;;;23.50;30.35
41513;BME280;27244;59.940;30.280;2023-03-25T01:25:29;98516.00;;;23.47;30.44
41513;BME280;27244;59.940;30.280;2023-03-25T01:27:56;98516.72;;;23.48;30.47
41513;BME280;27244;59.940;30.280;2023-03-25T01:30:23;98516.22;;;23.44;30.54
41513;BME280;27244;59.940;30.280;2023-03-25T01:32:50;98514.91;;;23.45;30.55
41513;BME280;27244;59.940;30.280;2023-03-25T01:35:17;98524.69;;;23.49;30.54
41513;BME280;27244;59.940;30.280;2023-03-25T01:37:44;98521.63;;;23.47;30.61
41513;BME280;27244;59.940;30.280;2023-03-25T01:40:16;98530.09;;;23.53;30.53
41513;BME280;27244;59.940;30.280;2023-03-25T01:42:44;98537.22;;;23.48;30.46
41513;BME280;27244;59.940;30.280;2023-03-25T01:45:23;98537.28;;;23.54;30.17
41513;BME280;27244;59.940;30.280;2023-03-25T01:47:55;98527.50;;;23.49;30.57
41513;BME280;27244;59.940;30.280;2023-03-25T01:50:26;98530.81;;;23.48;30.47
41513;BME280;27244;59.940;30.280;2023-03-25T01:52:56;98525.69;;;23.46;30.74
41513;BME280;27244;59.940;30.280;2023-03-25T01:55:25;98528.28;;;23.50;30.54
41513;BME280;27244;59.940;30.280;2023-03-25T01:57:55;98534.38;;;23.48;30.78
41513;BME280;27244;59.940;30.280;2023-03-25T02:00:24;98536.44;;;23.48;31.00
41513;BME280;27244;59.940;30.280;2023-03-25T02:02:56;98525.19;;;23.48;30.90
41513;BME280;27244;59.940;30.280;2023-03-25T02:05:31;98516.72;;;23.48;30.86
41513;BME280;27244;59.940;30.280;2023-03-25T02:08:01;98530.53;;;23.46;30.86
41513;BME280;27244;59.940;30.280;2023-03-25T02:10:31;98527.25;;;23.47;30.89
41513;BME280;27244;59.940;30.280;2023-03-25T02:13:00;98540.25;;;23.45;30.74
41513;BME280;27244;59.940;30.280;2023-03-25T02:15:31;98526.94;;;23.45;30.98
41513;BME280;27244;59.940;30.280;2023-03-25T02:18:27;98523.69;;;23.52;30.70
41513;BME280;27244;59.940;30.280;2023-03-25T02:24:21;98535.25;;;23.55;30.82
41513;BME280;27244;59.940;30.280;2023-03-25T02:27:11;98546.50;;;23.55;30.82
41513;BME280;27244;59.940;30.280;2023-03-25T02:30:16;98540.34;;;23.56;30.83
41513;BME280;27244;59.940;30.280;2023-03-25T02:33:11;98548.53;;;23.54;30.75
41513;BME280;27244;59.940;30.280;2023-03-25T02:36:03;98544.88;;;23.48;30.74
41513;BME280;27244;59.940;30.280;2023-03-25T02:38:43;98549.25;;;23.49;30.79
41513;BME280;27244;59.940;30.280;2023-03-25T02:41:20;98557.69;;;23.49;30.97
41513;BME280;27244;59.940;30.280;2023-03-25T02:43:55;98564.56;;;23.48;30.97
41513;BME280;27244;59.940;30.280;2023-03-25T02:46:24;98565.56;;;23.45;31.01
41513;BME280;27244;59.940;30.280;2023-03-25T02:48:55;98556.13;;;23.48;30.96
41513;BME280;27244;59.940;30.280;2023-03-25T02:51:28;98558.19;;;23.47;31.04
41513;BME280;27244;59.940;30.280;2023-03-25T02:54:00;98561.50;;;23.46;30.92
41513;BME280;27244;59.940;30.280;2023-03-25T02:56:29;98560.72;;;23.45;31.01
41513;BME280;27244;59.940;30.280;2023-03-25T02:58:58;98553.53;;;23.44;31.01
41513;BME280;27244;59.940;30.280;2023-03-25T03:01:26;98559.66;;;23.43;31.04
41513;BME280;27244;59.940;30.280;2023-03-25T03:03:55;98567.59;;;23.44;31.25
41513;BME280;27244;59.940;30.280;2023-03-25T03:06:23;98562.75;;;23.45;31.11
41513;BME280;27244;59.940;30.280;2023-03-25T03:11:53;98570.50;;;23.50;31.01
41513;BME280;27244;59.940;30.280;2023-03-25T03:14:29;98567.28;;;23.63;30.74
41513;BME280;27244;59.940;30.280;2023-03-25T03:17:05;98568.16;;;23.48;30.90
41513;BME280;27244;59.940;30.280;2023-03-25T03:19:37;98569.44;;;23.47;30.86
41513;BME280;27244;59.940;30.280;2023-03-25T03:22:13;98562.75;;;23.45;30.79
41513;BME280;27244;59.940;30.280;2023-03-25T03:24:47;98549.38;;;23.40;31.00
41513;BME280;27244;59.940;30.280;2023-03-25T03:27:21;98561.50;;;23.46;30.83
41513;BME280;27244;59.940;30.280;2023-03-25T03:29:56;98566.84;;;23.44;30.98
41513;BME280;27244;59.940;30.280;2023-03-25T03:32:27;98569.16;;;23.45;30.87
41513;BME280;27244;59.940;30.280;2023-03-25T03:35:01;98562.16;;;23.41;30.63
41513;BME280;27244;59.940;30.280;2023-03-25T03:37:33;98568.38;;;23.45;30.69
41513;BME280;27244;59.940;30.280;2023-03-25T03:40:02;98574.69;;;23.60;30.61
41513;BME280;27244;59.940;30.280;2023-03-25T03:42:33;98577.91;;;23.47;30.59
41513;BME280;27244;59.940;30.280;2023-03-25T03:45:05;98577.59;;;23.45;30.67
41513;BME280;27244;59.940;30.280;2023-03-25T03:47:36;98575.78;;;23.42;30.57
41513;BME280;27244;59.940;30.280;2023-03-25T03:50:05;98580.06;;;23.58;30.68
41513;BME280;27244;59.940;30.280;2023-03-25T03:52:37;98578.84;;;23.44;30.66
41513;BME280;27244;59.940;30.280;2023-03-25T03:55:08;98575.78;;;23.42;30.61
41513;BME280;27244;59.940;30.280;2023-03-25T03:57:41;98581.41;;;23.42;30.41
41513;BME280;27244;59.940;30.280;2023-03-25T04:00:15;98582.66;;;23.41;30.69
41513;BME280;27244;59.940;30.280;2023-03-25T04:02:46;98578.28;;;23.40;30.57
41513;BME280;27244;59.940;30.280;2023-03-25T04:05:16;98584.66;;;23.41;30.54
41513;BME280;27244;59.940;30.280;2023-03-25T04:07:48;98580.63;;;23.42;30.63
41513;BME280;27244;59.940;30.280;2023-03-25T04:10:23;98586.25;;;23.42;30.66
41513;BME280;27244;59.940;30.280;2023-03-25T04:12:56;98589.38;;;23.44;30.75
41513;BME280;27244;59.940;30.280;2023-03-25T04:15:26;98577.59;;;23.45;32.98
41513;BME280;27244;59.940;30.280;2023-03-25T04:17:53;98582.53;;;23.50;32.01
41513;BME280;27244;59.940;30.280;2023-03-25T04:20:22;98584.13;;;23.57;31.65
41513;BME280;27244;59.940;30.280;2023-03-25T04:22:54;98581.88;;;23.61;31.25
41513;BME280;27244;59.940;30.280;2023-03-25T04:25:21;98575.47;;;23.61;31.13
41513;BME280;27244;59.940;30.280;2023-03-25T04:27:49;98585.72;;;23.64;30.86
41513;BME280;27244;59.940;30.280;2023-03-25T04:30:19;98573.13;;;23.59;30.66
41513;BME280;27244;59.940;30.280;2023-03-25T04:32:46;98571.66;;;23.64;30.67
41513;BME280;27244;59.940;30.280;2023-03-25T04:35:14;98567.84;;;23.67;30.66
41513;BME280;27244;59.940;30.280;2023-03-25T04:37:41;98563.28;;;23.69;30.45
41513;BME280;27244;59.940;30.280;2023-03-25T04:40:11;98557.38;;;23.67;30.40
41513;BME280;27244;59.940;30.280;2023-03-25T04:42:38;98555.81;;;23.66;30.33
41513;BME280;27244;59.940;30.280;2023-03-25T04:45:08;98559.19;;;23.70;30.17
41513;BME280;27244;59.940;30.280;2023-03-25T04:47:48;98561.56;;;23.77;30.14
41513;BME280;27244;59.940;30.280;2023-03-25T04:50:20;98556.66;;;23.72;30.00
41513;BME280;27244;59.940;30.280;2023-03-25T04:52:47;98565.59;;;23.71;29.73
41513;BME280;27244;59.940;30.280;2023-03-25T04:55:14;98546.09;;;23.67;29.74
41513;BME280;27244;59.940;30.280;2023-03-25T04:57:44;98562.56;;;23.74;29.74
41513;BME280;27244;59.940;30.280;2023-03-25T05:00:13;98552.84;;;23.75;29.90
41513;BME280;27244;59.940;30.280;2023-03-25T05:02:47;98552.31;;;23.77;29.70
41513;BME280;27244;59.940;30.280;2023-03-25T05:05:16;98561.28;;;23.75;29.74
41513;BME280;27244;59.940;30.280;2023-03-25T05:07:44;98561.28;;;23.75;29.61
41513;BME280;27244;59.940;30.280;2023-03-25T05:10:14;98551.50;;;23.71;29.55
41513;BME280;27244;59.940;30.280;2023-03-25T05:12:41;98550.50;;;23.74;29.60
41513;BME280;27244;59.940;30.280;2023-03-25T05:15:09;98552.84;;;23.75;29.47
41513;BME280;27244;59.940;30.280;2023-03-25T05:17:36;98546.41;;;23.69;29.86
41513;BME280;27244;59.940;30.280;2023-03-25T05:20:06;98570.00;;;23.77;30.10
41513;BME280;27244;59.940;30.280;2023-03-25T05:22:35;98555.91;;;23.77;30.12
41513;BME280;27244;59.940;30.280;2023-03-25T05:25:03;98553.09;;;23.77;30.23
41513;BME280;27244;59.940;30.280;2023-03-25T05:27:31;98551.28;;;23.74;30.13
41513;BME280;27244;59.940;30.280;2023-03-25T05:29:58;98553.41;;;23.79;29.91
41513;BME280;27244;59.940;30.280;2023-03-25T05:32:27;98556.22;;;23.79;29.85
41513;BME280;27244;59.940;30.280;2023-03-25T05:34:57;98548.25;;;23.78;29.98
41513;BME280;27244;59.940;30.280;2023-03-25T05:37:26;98550.25;;;23.72;31.51
41513;BME280;27244;59.940;30.280;2023-03-25T05:39:53;98547.22;;;23.75;30.83
41513;BME280;27244;59.940;30.280;2023-03-25T05:42:20;98544.66;;;23.77;30.46
41513;BME280;27244;59.940;30.280;2023-03-25T05:45:06;98555.47;;;23.84;30.20
41513;BME280;27244;59.940;30.280;2023-03-25T05:47:33;98547.00;;;23.79;30.10
41513;BME280;27244;59.940;30.280;2023-03-25T05:50:03;98547.25;;;23.81;29.96
41513;BME280;27244;59.940;30.280;2023-03-25T05:52:31;98547.25;;;23.81;29.87
41513;BME280;27244;59.940;30.280;2023-03-25T05:54:58;98547.47;;;23.77;29.69
41513;BME280;27244;59.940;30.280;2023-03-25T05:57:25;98539.03;;;23.77;29.70
41513;BME280;27244;59.940;30.280;2023-03-25T05:59:52;98537.78;;;23.78;29.83
41513;BME280;27244;59.940;30.280;2023-03-25T06:02:20;98546.22;;;23.78;29.75
41513;BME280;27244;59.940;30.280;2023-03-25T06:04:48;98539.03;;;23.77;29.47
41513;BME280;27244;59.940;30.280;2023-03-25T06:07:18;98537.22;;;23.74;29.52
41513;BME280;27244;59.940;30.280;2023-03-25T06:09:48;98538.25;;;23.77;29.67
41513;BME280;27244;59.940;30.280;2023-03-25T06:12:20;98546.69;;;23.77;29.57
41513;BME280;27244;59.940;30.280;2023-03-25T06:14:52;98546.22;;;23.78;29.54
41513;BME280;27244;59.940;30.280;2023-03-25T06:17:35;98529.06;;;23.76;29.52
41513;BME280;27244;59.940;30.280;2023-03-25T06:20:04;98531.88;;;23.76;29.38
41513;BME280;27244;59.940;30.280;2023-03-25T06:22:37;98533.13;;;23.75;29.61
41513;BME280;27244;59.940;30.280;2023-03-25T06:25:06;98531.88;;;23.76;29.53
41513;BME280;27244;59.940;30.280;2023-03-25T06:27:35;98522.59;;;23.70;30.12
41513;BME280;27244;59.940;30.280;2023-03-25T06:30:07;98523.91;;;23.75;29.80
41513;BME280;27244;59.940;30.280;2023-03-25T06:32:34;98516.72;;;23.74;29.94
41513;BME280;27244;59.940;30.280;2023-03-25T06:35:02;98514.44;;;23.72;29.99
41513;BME280;27244;59.940;30.280;2023-03-25T06:37:29;98514.44;;;23.72;30.12
41513;BME280;27244;59.940;30.280;2023-03-25T06:39:58;98515.97;;;23.73;30.24
41513;BME280;27244;59.940;30.280;2023-03-25T06:42:27;98509.34;;;23.76;30.54
41513;BME280;27244;59.940;30.280;2023-03-25T06:45:29;98505.22;;;23.72;30.52
41513;BME280;27244;59.940;30.280;2023-03-25T06:48:21;98505.75;;;23.76;30.57
41513;BME280;27244;59.940;30.280;2023-03-25T06:50:49;98483.63;;;23.63;30.77
41513;BME280;27244;59.940;30.280;2023-03-25T06:53:16;98507.50;;;23.73;30.99
41513;BME280;27244;59.940;30.280;2023-03-25T06:55:43;98490.34;;;23.71;30.90
41513;BME280;27244;59.940;30.280;2023-03-25T06:58:11;98495.00;;;23.74;30.94
41513;BME280;27244;59.940;30.280;2023-03-25T07:00:38;98494.22;;;23.74;31.11
41513;BME280;27244;59.940;30.280;2023-03-25T07:03:05;98490.13;;;23.75;31.07
41513;BME280;27244;59.940;30.280;2023-03-25T07:05:32;98469.09;;;23.70;31.16
41513;BME280;27244;59.940;30.280;2023-03-25T07:07:59;98486.84;;;23.76;31.29
41513;BME280;27244;59.940;30.280;2023-03-25T07:10:26;98471.97;;;23.76;31.24
41513;BME280;27244;59.940;30.280;2023-03-25T07:12:53;98469.94;;;23.76;31.21
41513;BME280;27244;59.940;30.280;2023-03-25T07:15:22;98469.44;;;23.78;31.68
41513;BME280;27244;59.940;30.280;2023-03-25T07:17:49;98455.88;;;23.76;31.17
41513;BME280;27244;59.940;30.280;2023-03-25T07:20:17;98453.84;;;23.82;31.32
41513;BME280;27244;59.940;30.280;2023-03-25T07:22:44;98440.28;;;23.81;31.47
41513;BME280;27244;59.940;30.280;2023-03-25T07:25:11;98436.97;;;23.82;31.53
41513;BME280;27244;59.940;30.280;2023-03-25T07:27:38;98433.88;;;23.80;31.67
41513;BME280;27244;59.940;30.280;2023-03-25T07:30:11;98432.59;;;23.81;31.66
41513;BME280;27244;59.940;30.280;2023-03-25T07:32:40;98429.78;;;23.81;31.70
41513;BME280;27244;59.940;30.280;2023-03-25T07:35:07;98429.53;;;23.79;31.86
41513;BME280;27244;59.940;30.280;2023-03-25T07:37:35;98434.41;;;23.84;31.66
41513;BME280;27244;59.940;30.280;2023-03-25T07:40:02;98436.69;;;23.80;31.75
41513;BME280;27244;59.940;30.280;2023-03-25T07:42:29;98423.66;;;23.83;31.74
41513;BME280;27244;59.940;30.280;2023-03-25T07:45:19;98424.44;;;23.83;31.76
41513;BME280;27244;59.940;30.280;2023-03-25T07:47:49;98417.25;;;23.82;31.79
41513;BME280;27244;59.940;30.280;2023-03-25T07:50:18;98415.72;;;23.81;31.71
41513;BME280;27244;59.940;30.280;2023-03-25T07:52:48;98418.28;;;23.85;31.86
41513;BME280;27244;59.940;30.280;2023-03-25T07:55:15;98416.25;;;23.85;31.78
41513;BME280;27244;59.940;30.280;2023-03-25T07:57:42;98408.59;;;23.86;32.01
41513;BME280;27244;59.940;30.280;2023-03-25T08:00:11;98398.81;;;23.81;31.83
41513;BME280;27244;59.940;30.280;2023-03-25T08:02:38;98402.19;;;23.85;31.88
41513;BME280;27244;59.940;30.280;2023-03-25T08:05:07;98395.53;;;23.88;32.05
41513;BME280;27244;59.940;30.280;2023-03-25T08:07:35;98390.44;;;23.87;31.92
41513;BME280;27244;59.940;30.280;2023-03-25T08:10:02;98401.91;;;23.83;31.99
41513;BME280;27244;59.940;30.280;2023-03-25T08:12:29;98407.31;;;23.87;32.10
41513;BME280;27244;59.940;30.280;2023-03-25T08:14:55;98403.44;;;23.84;32.01
41513;BME280;27244;59.940;30.280;2023-03-25T08:17:24;98416.03;;;23.89;32.09
41513;BME280;27244;59.940;30.280;2023-03-25T08:19:51;98415.25;;;23.88;32.19
41513;BME280;27244;59.940;30.280;2023-03-25T08:22:19;98422.44;;;23.89;32.14
41513;BME280;27244;59.940;30.280;2023-03-25T08:24:46;98421.66;;;23.89;32.22
41513;BME280;27244;59.940;30.280;2023-03-25T08:27:13;98420.66;;;23.92;32.08
41513;BME280;27244;59.940;30.280;2023-03-25T08:29:40;98422.44;;;23.89;32.10
41513;BME280;27244;59.940;30.280;2023-03-25T08:32:07;98425.00;;;23.87;32.32
41513;BME280;27244;59.940;30.280;2023-03-25T08:34:36;98428.06;;;23.89;32.25
41513;BME280;27244;59.940;30.280;2023-03-25T08:37:04;98441.09;;;23.87;32.12
41513;BME280;27244;59.940;30.280;2023-03-25T08:39:33;98435.41;;;23.81;32.14
41513;BME280;27244;59.940;30.280;2023-03-25T08:42:04;98439.31;;;23.89;32.27
41513;BME280;27244;59.940;30.280;2023-03-25T08:44:32;98437.78;;;23.88;32.34
41513;BME280;27244;59.940;30.280;2023-03-25T08:46:59;98449.81;;;23.89;32.44
41513;BME280;27244;59.940;30.280;2023-03-25T08:49:26;98444.97;;;23.89;32.34
41513;BME280;27244;59.940;30.280;2023-03-25T08:52:03;98436.50;;;23.89;32.48
41513;BME280;27244;59.940;30.280;2023-03-25T08:54:34;98434.69;;;23.86;32.35
41513;BME280;27244;59.940;30.280;2023-03-25T08:57:04;98434.72;;;23.92;32.31
41513;BME280;27244;59.940;30.280;2023-03-25T08:59:31;98442.41;;;23.91;32.55
41513;BME280;27244;59.940;30.280;2023-03-25T09:01:58;98442.41;;;23.91;32.46
41513;BME280;27244;59.940;30.280;2023-03-25T09:04:25;98446.22;;;23.88;32.49
41513;BME280;27244;59.940;30.280;2023-03-25T09:06:52;98445.72;;;23.90;32.56
41513;BME280;27244;59.940;30.280;2023-03-25T09:09:19;98448.53;;;23.90;32.24
41513;BME280;27244;59.940;30.280;2023-03-25T09:11:52;98444.97;;;23.95;32.46
41513;BME280;27244;59.940;30.280;2023-03-25T09:14:20;98451.13;;;23.93;32.40
41513;BME280;27244;59.940;30.280;2023-03-25T09:17:18;98446.00;;;23.92;32.40
41513;BME280;27244;59.940;30.280;2023-03-25T09:19:45;98453.66;;;23.91;32.54
41513;BME280;27244;59.940;30.280;2023-03-25T09:22:13;98460.06;;;23.92;32.59
41513;BME280;27244;59.940;30.280;2023-03-25T09:24:40;98451.13;;;23.93;32.87
41513;BME280;27244;59.940;30.280;2023-03-25T09:27:08;98461.13;;;23.94;32.68
41513;BME280;27244;59.940;30.280;2023-03-25T09:29:35;98474.91;;;23.92;32.68
41513;BME280;27244;59.940;30.280;2023-03-25T09:32:02;98467.75;;;23.91;32.62
41513;BME280;27244;59.940;30.280;2023-03-25T09:34:29;98491.59;;;23.96;32.81
41513;BME280;27244;59.940;30.280;2023-03-25T09:36:57;98501.81;;;23.93;32.84
41513;BME280;27244;59.940;30.280;2023-03-25T09:39:24;98496.97;;;23.94;32.90
41513;BME280;27244;59.940;30.280;2023-03-25T09:42:21;98506.47;;;24.02;32.90
41513;BME280;27244;59.940;30.280;2023-03-25T09:44:55;98521.78;;;23.95;33.26
41513;BME280;27244;59.940;30.280;2023-03-25T09:47:25;98517.38;;;23.89;33.21
41513;BME280;27244;59.940;30.280;2023-03-25T09:49:59;98483.06;;;23.59;33.00
41513;BME280;27244;59.940;30.280;2023-03-25T09:52:35;98483.63;;;23.63;33.04
41513;BME280;27244;59.940;30.280;2023-03-25T09:55:09;98543.28;;;23.93;33.03
41513;BME280;27244;59.940;30.280;2023-03-25T09:57:45;98541.41;;;23.84;33.00
41513;BME280;27244;59.940;30.280;2023-03-25T10:00:19;98538.53;;;23.79;33.12
41513;BME280;27244;59.940;30.280;2023-03-25T10:02:50;98520.50;;;23.65;32.88
41513;BME280;27244;59.940;30.280;2023-03-25T10:08:17;98553.28;;;23.68;32.98
41513;BME280;27244;59.940;30.280;2023-03-25T10:11:04;98572.81;;;23.77;33.00
41513;BME280;27244;59.940;30.280;2023-03-25T10:13:39;98594.66;;;23.88;33.16
41513;BME280;27244;59.940;30.280;2023-03-25T10:16:20;98597.50;;;23.88;33.00
41513;BME280;27244;59.940;30.280;2023-03-25T10:19:03;98598.72;;;23.81;33.09
41513;BME280;27244;59.940;30.280;2023-03-25T10:21:42;98621.56;;;23.89;33.15
41513;BME280;27244;59.940;30.280;2023-03-25T10:24:30;98632.56;;;23.87;33.08
41513;BME280;27244;59.940;30.280;2023-03-25T10:27:01;98650.25;;;23.87;33.16
41513;BME280;27244;59.940;30.280;2023-03-25T10:29:36;98648.16;;;23.88;33.18
41513;BME280;27244;59.940;30.280;2023-03-25T10:32:14;98634.81;;;23.83;33.27
41513;BME280;27244;59.940;30.280;2023-03-25T10:34:46;98616.63;;;23.58;32.98
41513;BME280;27244;59.940;30.280;2023-03-25T10:37:20;98638.84;;;23.76;33.17
41513;BME280;27244;59.940;30.280;2023-03-25T10:39:55;98653.97;;;23.79;33.34
41513;BME280;27244;59.940;30.280;2023-03-25T10:42:26;98663.53;;;23.87;33.44
41513;BME280;27244;59.940;30.280;2023-03-25T10:44:56;98644.63;;;23.67;33.30
41513;BME280;27244;59.940;30.280;2023-03-25T10:47:30;98663.03;;;23.88;33.24
41513;BME280;27244;59.940;30.280;2023-03-25T10:49:59;98656.50;;;23.77;33.45
41513;BME280;27244;59.940;30.280;2023-03-25T10:52:27;98691.97;;;23.89;33.24
41513;BME280;27244;59.940;30.280;2023-03-25T10:54:55;98698.38;;;23.89;33.25
41513;BME280;27244;59.940;30.280;2023-03-25T10:57:26;98694.22;;;23.85;33.45
41513;BME280;27244;59.940;30.280;2023-03-25T10:59:59;98712.44;;;23.89;33.31
41513;BME280;27244;59.940;30.280;2023-03-25T11:02:30;98708.09;;;23.88;33.32
41513;BME280;27244;59.940;30.280;2023-03-25T11:05:00;98721.69;;;23.90;33.28
41513;BME280;27244;59.940;30.280;2023-03-25T11:07:32;98731.69;;;23.91;33.25
41513;BME280;27244;59.940;30.280;2023-03-25T11:10:24;98742.53;;;23.98;32.99
41513;BME280;27244;59.940;30.280;2023-03-25T11:12:53;98739.28;;;23.85;33.34
41513;BME280;27244;59.940;30.280;2023-03-25T11:15:28;98735.97;;;23.86;33.39
41513;BME280;27244;59.940;30.280;2023-03-25T11:17:58;98749.06;;;23.89;33.20
41513;BME280;27244;59.940;30.280;2023-03-25T11:20:28;98754.69;;;23.89;33.33
41513;BME280;27244;59.940;30.280;2023-03-25T11:23:03;98764.19;;;23.92;33.03
41513;BME280;27244;59.940;30.280;2023-03-25T11:25:35;98764.19;;;23.92;33.26
41513;BME280;27244;59.940;30.280;2023-03-25T11:28:10;98776.22;;;23.92;33.41
41513;BME280;27244;59.940;30.280;2023-03-25T11:31:12;98787.28;;;23.96;33.13
41513;BME280;27244;59.940;30.280;2023-03-25T11:33:42;98798.47;;;23.90;33.40
41513;BME280;27244;59.940;30.280;2023-03-25T11:36:26;98797.00;;;23.95;33.18
41513;BME280;27244;59.940;30.280;2023-03-25T11:38:59;98806.94;;;23.90;33.13
41513;BME280;27244;59.940;30.280;2023-03-25T11:41:28;98828.38;;;23.88;33.19
41513;BME280;27244;59.940;30.280;2023-03-25T11:43:56;98825.28;;;23.86;33.28
41513;BME280;27244;59.940;30.280;2023-03-25T11:46:25;98836.09;;;23.87;33.35
41513;BME280;27244;59.940;30.280;2023-03-25T11:48:52;98853.47;;;23.86;33.21
41513;BME280;27244;59.940;30.280;2023-03-25T11:51:21;98856.75;;;23.84;33.25
41513;BME280;27244;59.940;30.280;2023-03-25T11:53:54;98870.34;;;23.86;33.22
41513;BME280;27244;59.940;30.280;2023-03-25T11:56:30;98878.59;;;23.89;33.38
41513;BME280;27244;59.940;30.280;2023-03-25T11:59:00;98890.06;;;23.86;33.32
41513;BME280;27244;59.940;30.280;2023-03-25T12:01:37;98893.72;;;23.92;33.37
41513;BME280;27244;59.940;30.280;2023-03-25T12:04:11;98893.34;;;23.84;33.43
41513;BME280;27244;59.940;30.280;2023-03-25T12:06:52;98902.69;;;23.90;33.49
41513;BME280;27244;59.940;30.280;2023-03-25T12:09:19;98921.81;;;23.86;33.38
41513;BME280;27244;59.940;30.280;2023-03-25T12:11:51;98926.94;;;23.88;33.51
41513;BME280;27244;59.940;30.280;2023-03-25T12:14:28;98922.88;;;23.89;33.45
41513;BME280;27244;59.940;30.280;2023-03-25T12:17:05;98944.63;;;23.88;33.37
41513;BME280;27244;59.940;30.280;2023-03-25T12:19:44;98951.03;;;23.89;33.33
41513;BME280;27244;59.940;30.280;2023-03-25T12:22:25;98951.81;;;23.89;33.33
41513;BME280;27244;59.940;30.280;2023-03-25T12:25:14;98966.16;;;23.91;33.21
41513;BME280;27244;59.940;30.280;2023-03-25T12:27:56;98976.38;;;23.89;33.32
41513;BME280;27244;59.940;30.280;2023-03-25T12:30:35;98976.09;;;23.87;33.38
41513;BME280;27244;59.940;30.280;2023-03-25T12:33:20;99006.09;;;23.90;33.19
41513;BME280;27244;59.940;30.280;2023-03-25T12:36:02;99004.84;;;23.91;33.31
41513;BME280;27244;59.940;30.280;2023-03-25T12:38:40;99007.06;;;23.87;33.21
41513;BME280;27244;59.940;30.280;2023-03-25T12:41:19;99016.78;;;23.86;33.40
41513;BME280;27244;59.940;30.280;2023-03-25T12:44:01;99023.78;;;23.90;33.30
41513;BME280;27244;59.940;30.280;2023-03-25T12:46:55;99045.78;;;23.92;33.08
41513;BME280;27244;59.940;30.280;2023-03-25T12:49:36;99050.66;;;23.91;33.37
41513;BME280;27244;59.940;30.280;2023-03-25T12:52:07;99053.66;;;24.02;32.83
41513;BME280;27244;59.940;30.280;2023-03-25T12:54:48;99069.09;;;23.92;33.19
41513;BME280;27244;59.940;30.280;2023-03-25T12:57:42;99076.31;;;23.93;33.10
41513;BME280;27244;59.940;30.280;2023-03-25T13:00:40;99079.78;;;23.88;33.63
41513;BME280;27244;59.940;30.280;2023-03-25T13:03:31;99102.63;;;23.90;34.00
41513;BME280;27244;59.940;30.280;2023-03-25T13:06:14;99120.97;;;23.86;34.60
41513;BME280;27244;59.940;30.280;2023-03-25T13:09:09;99119.22;;;23.88;33.99
41513;BME280;27244;59.940;30.280;2023-03-25T13:11:40;99119.78;;;23.78;34.70
41513;BME280;27244;59.940;30.280;2023-03-25T13:14:16;99131.34;;;23.80;37.80
41513;BME280;27244;59.940;30.280;2023-03-25T13:16:46;99134.16;;;23.80;35.94
41513;BME280;27244;59.940;30.280;2023-03-25T13:19:16;99142.91;;;23.96;34.72
41513;BME280;27244;59.940;30.280;2023-03-25T13:21:49;99153.69;;;23.83;35.88
41513;BME280;27244;59.940;30.280;2023-03-25T13:24:20;99171.53;;;23.80;35.58